createdAt,value
2018-08-22T00:05:21.341Z,27.9
2018-08-22T00:15:20.673Z,27.9
2018-08-22T00:25:19.859Z,27.9
2018-08-22T00:35:19.074Z,27.9
2018-08-22T00:45:18.318Z,27.9
2018-08-22T00:55:17.565Z,27.9
2018-08-22T01:05:16.812Z,27.9
2018-08-22T01:15:16.053Z,27.9
2018-08-22T01:25:15.298Z,27.9
2018-08-22T01:35:14.543Z,27.9
2018-08-22T01:45:13.787Z,27.8
2018-08-22T01:55:13.031Z,27.8
2018-08-22T02:05:12.277Z,27.8
2018-08-22T02:15:11.521Z,27.8
2018-08-22T02:25:10.780Z,27.8
2018-08-22T02:35:10.012Z,27.8
2018-08-22T02:45:09.253Z,27.8
2018-08-22T02:55:08.497Z,27.8
2018-08-22T03:05:07.741Z,27.8
2018-08-22T03:15:06.987Z,27.8
2018-08-22T03:25:06.231Z,27.8
2018-08-22T03:35:05.477Z,27.8
2018-08-22T03:45:04.717Z,27.6
2018-08-22T03:55:03.960Z,27.6
2018-08-22T04:05:03.211Z,27.6
2018-08-22T04:15:02.448Z,27.6
2018-08-22T04:25:01.694Z,27.6
2018-08-22T04:35:00.937Z,27.6
2018-08-22T04:45:00.187Z,27.6
2018-08-22T04:54:59.429Z,27.6
2018-08-22T05:04:58.669Z,27.6
2018-08-22T05:14:57.912Z,27.7
2018-08-22T05:24:57.157Z,27.7
2018-08-22T05:34:56.406Z,27.7
2018-08-22T05:44:55.644Z,27.7
2018-08-22T05:54:54.886Z,27.8
2018-08-22T06:04:54.130Z,27.8
2018-08-22T06:14:53.374Z,27.8
2018-08-22T06:24:52.617Z,27.8
2018-08-22T06:34:51.865Z,27.8
2018-08-22T06:44:51.103Z,27.8
2018-08-22T06:54:50.349Z,27.8
2018-08-22T07:04:49.591Z,27.8
2018-08-22T07:14:48.833Z,27.8
2018-08-22T07:24:48.078Z,27.8
2018-08-22T07:34:47.368Z,27.8
2018-08-22T07:44:46.562Z,27.8
2018-08-22T07:54:45.805Z,27.8
2018-08-22T08:04:45.055Z,27.8
2018-08-22T08:14:44.341Z,27.8
2018-08-22T08:24:43.536Z,27.8
2018-08-22T08:34:42.780Z,27.8
2018-08-22T08:44:42.031Z,27.8
2018-08-22T08:54:41.266Z,27.8
2018-08-22T09:04:40.512Z,27.8
2018-08-22T09:14:39.754Z,27.8
2018-08-22T09:24:39.022Z,27.8
2018-08-22T09:34:38.246Z,27.8
2018-08-22T09:44:37.497Z,27.8
2018-08-22T09:54:36.781Z,27.8
2018-08-22T10:04:35.983Z,27.8
2018-08-22T10:14:35.225Z,27.8
2018-08-22T10:24:34.473Z,27.8
2018-08-22T10:34:33.717Z,27.8
2018-08-22T10:44:33.019Z,27.8
2018-08-22T10:54:32.218Z,27.9
2018-08-22T11:04:31.464Z,27.9
2018-08-22T11:14:30.711Z,27.9
2018-08-22T11:24:29.948Z,27.9
2018-08-22T11:34:29.270Z,27.9
2018-08-22T11:44:28.441Z,27.9
2018-08-22T11:54:27.687Z,27.9
2018-08-22T12:04:26.934Z,27.9
2018-08-22T12:14:26.186Z,27.9
2018-08-22T12:24:25.429Z,27.9
2018-08-22T12:34:24.675Z,27.9
2018-08-22T12:44:23.985Z,27.9
2018-08-22T18:03:59.789Z,27.3
2018-08-22T18:13:59.186Z,27.4
2018-08-22T18:23:58.292Z,27.5
2018-08-22T18:33:57.536Z,27.4
2018-08-22T18:43:56.786Z,27.4
2018-08-22T18:53:56.028Z,27.4
2018-08-22T19:03:55.276Z,27.3
2018-08-22T19:13:54.520Z,27.3
2018-08-22T19:23:53.770Z,27.3
2018-08-22T19:33:53.022Z,27.2
2018-08-22T19:43:52.263Z,27.3
2018-08-22T19:53:51.510Z,27.4
2018-08-22T20:03:50.756Z,27.4
2018-08-22T20:13:50.006Z,27.5
2018-08-22T20:23:49.310Z,27.6
2018-08-22T20:33:48.492Z,27.6
2018-08-22T20:43:47.734Z,27.6
2018-08-22T20:53:46.979Z,27.6
2018-08-22T21:03:46.232Z,27.6
2018-08-22T21:13:45.488Z,27.7
2018-08-22T21:23:44.715Z,27.7
2018-08-22T21:33:43.958Z,27.7
2018-08-22T21:43:43.202Z,27.7
2018-08-22T21:53:42.448Z,27.6
2018-08-22T22:03:41.690Z,27.6
2018-08-22T22:13:40.938Z,27.5
2018-08-22T22:23:40.186Z,27.5
2018-08-22T22:33:39.481Z,27.5
2018-08-22T22:43:38.672Z,27.4
2018-08-22T22:53:37.914Z,27.4
2018-08-22T23:03:37.151Z,27.4
2018-08-22T23:13:36.394Z,27.4
2018-08-22T23:23:35.638Z,27.4
2018-08-22T23:33:34.876Z,27.4
2018-08-22T23:43:34.119Z,27.4
2018-08-22T23:53:33.361Z,27.3
